الصفحة الرئيسية
METAR-TAF:

METAR-TAF

مطار :

جيرالدتون, أستراليا

دائرة عرض: 28-47-46S, خط طول: 114-42-27E, ارتفاع: 37 متر

مراقبة الطقس الحالي

تاريخ ووقت الإصدار 34 دقيقة قبل الساعة 21:30UTC
ريح 5 عقدة من الشرق
درجة الحرارة 14°درجة مئوية
الرطوبة 82%
ضغط 1019 hPa
الرؤية 10 كم أو أكثر
غيوم متفرقة على ارتفاع 3100 قدم
غيوم مفككة على ارتفاع 3800 قدم
غيوم مفككة على ارتفاع 4800 قدم

METAR: YGEL 252130Z AUTO 09005KT 9999 // SCT031 BKN038 BKN048 14/11 Q1019

زمن: 06:04 (22:04 UTC)

توقعات

تاريخ ووقت الإصدار 5ساعات و 59 دقيقة قبل الساعة 16:05UTC
التوقعات صالحة من25 الساعة 18 UTC إلى 26 الساعة 12 UTC
ريح 14 عقدة من الجنوب
الرؤية 10 كم أو أكثر
غيوم متفرقة على ارتفاع 4500 قدم
من 25 الساعة 2000 UTC
ريح 5 عقدة من الشمال الشرقي
الرؤية 10 كم أو أكثر
غيوم مفككة على ارتفاع 4000 قدم
من 26 الساعة 0800 UTC
ريح 8 عقدة من الشرق/الجنوب الشرقي
الرؤية 10 كم أو أكثر
غيوم مفككة على ارتفاع 3500 قدم

TAF: YGEL 251605Z 2518/2612 18014KT 9999 SCT045 FM252000 04005KT 9999 BKN040 FM260800 11008KT 9999 BKN035

أرصاد الطقس والتوقعات من أكثر من 4000 مطار (تقارير الطقس للمطار METAR والتنبؤ بالطقس بالمطارTAF).

المحطات المتاحة هي النقط الصفراء والحمراء على الخريطة.

حرك المؤشر فوق النقطة لمعرفة اسم المحطة.

ثم انقر لمعرفة أرصاد وتوقعات الطقس.

لتغيير الخارطة: اضغط على الأزرار الخضراء مع رمز الصليب الأسود للتكبير. على الزر الأخضر مع شرطة للتصغير، أو على الأسهم الخضراء للخرائط المجاورة.


METAR-TAF: